sensor_id;sensor_type;location;lat;lon;timestamp;temperature;humidity
4103;DHT22;2065;49.790;9.620;2022-12-15T00:00:16;1.10;52.40
4103;DHT22;2065;49.790;9.620;2022-12-15T00:03:06;1.30;52.40
4103;DHT22;2065;49.790;9.620;2022-12-15T00:05:51;1.10;52.60
4103;DHT22;2065;49.790;9.620;2022-12-15T00:08:35;1.30;52.50
4103;DHT22;2065;49.790;9.620;2022-12-15T00:11:19;1.40;52.40
4103;DHT22;2065;49.790;9.620;2022-12-15T00:14:04;1.50;52.30
4103;DHT22;2065;49.790;9.620;2022-12-15T00:16:49;1.60;52.40
4103;DHT22;2065;49.790;9.620;2022-12-15T00:19:35;1.60;52.70
4103;DHT22;2065;49.790;9.620;2022-12-15T00:22:19;1.50;53.00
4103;DHT22;2065;49.790;9.620;2022-12-15T00:25:04;1.70;52.80
4103;DHT22;2065;49.790;9.620;2022-12-15T00:27:49;1.80;52.50
4103;DHT22;2065;49.790;9.620;2022-12-15T00:30:33;1.90;52.30
4103;DHT22;2065;49.790;9.620;2022-12-15T00:33:17;1.80;52.50
4103;DHT22;2065;49.790;9.620;2022-12-15T00:36:03;1.70;53.00
4103;DHT22;2065;49.790;9.620;2022-12-15T00:38:48;1.80;52.60
4103;DHT22;2065;49.790;9.620;2022-12-15T00:41:16;1.80;52.50
4103;DHT22;2065;49.790;9.620;2022-12-15T00:43:44;1.70;52.70
4103;DHT22;2065;49.790;9.620;2022-12-15T00:46:11;1.70;52.80
4103;DHT22;2065;49.790;9.620;2022-12-15T00:48:56;1.70;53.30
4103;DHT22;2065;49.790;9.620;2022-12-15T00:51:25;1.80;52.80
4103;DHT22;2065;49.790;9.620;2022-12-15T00:54:09;1.80;52.60
4103;DHT22;2065;49.790;9.620;2022-12-15T00:56:54;1.70;52.90
4103;DHT22;2065;49.790;9.620;2022-12-15T00:59:39;1.70;52.90
4103;DHT22;2065;49.790;9.620;2022-12-15T01:02:23;1.80;52.90
4103;DHT22;2065;49.790;9.620;2022-12-15T01:05:08;1.30;52.80
4103;DHT22;2065;49.790;9.620;2022-12-15T01:07:53;0.90;54.70
4103;DHT22;2065;49.790;9.620;2022-12-15T01:10:38;1.10;55.60
4103;DHT22;2065;49.790;9.620;2022-12-15T01:13:22;1.30;54.60
4103;DHT22;2065;49.790;9.620;2022-12-15T01:16:09;1.20;54.90
4103;DHT22;2065;49.790;9.620;2022-12-15T01:18:54;1.20;55.20
4103;DHT22;2065;49.790;9.620;2022-12-15T01:21:38;1.30;55.20
4103;DHT22;2065;49.790;9.620;2022-12-15T01:24:07;1.30;55.70
4103;DHT22;2065;49.790;9.620;2022-12-15T01:26:34;1.30;55.00
4103;DHT22;2065;49.790;9.620;2022-12-15T01:29:01;1.40;55.00
4103;DHT22;2065;49.790;9.620;2022-12-15T01:31:27;1.60;54.70
4103;DHT22;2065;49.790;9.620;2022-12-15T01:33:55;1.70;54.50
4103;DHT22;2065;49.790;9.620;2022-12-15T01:36:22;1.80;54.00
4103;DHT22;2065;49.790;9.620;2022-12-15T01:38:49;1.60;54.20
4103;DHT22;2065;49.790;9.620;2022-12-15T01:41:17;1.70;53.80
4103;DHT22;2065;49.790;9.620;2022-12-15T01:43:43;1.80;53.70
4103;DHT22;2065;49.790;9.620;2022-12-15T01:46:13;1.80;53.70
4103;DHT22;2065;49.790;9.620;2022-12-15T01:48:43;1.80;53.70
4103;DHT22;2065;49.790;9.620;2022-12-15T01:51:23;1.90;53.40
4103;DHT22;2065;49.790;9.620;2022-12-15T01:53:55;2.00;53.10
4103;DHT22;2065;49.790;9.620;2022-12-15T01:56:26;2.00;52.80
4103;DHT22;2065;49.790;9.620;2022-12-15T01:58:57;1.90;52.60
4103;DHT22;2065;49.790;9.620;2022-12-15T02:01:27;1.90;52.90
4103;DHT22;2065;49.790;9.620;2022-12-15T02:03:54;1.70;53.50
4103;DHT22;2065;49.790;9.620;2022-12-15T02:06:24;1.60;54.00
4103;DHT22;2065;49.790;9.620;2022-12-15T02:08:53;1.80;53.70
4103;DHT22;2065;49.790;9.620;2022-12-15T02:14:26;1.90;53.00
4103;DHT22;2065;49.790;9.620;2022-12-15T02:17:04;1.70;53.50
4103;DHT22;2065;49.790;9.620;2022-12-15T02:20:04;1.80;53.80
4103;DHT22;2065;49.790;9.620;2022-12-15T02:22:49;1.90;53.60
4103;DHT22;2065;49.790;9.620;2022-12-15T02:25:27;1.70;53.80
4103;DHT22;2065;49.790;9.620;2022-12-15T02:28:06;1.60;53.90
4103;DHT22;2065;49.790;9.620;2022-12-15T02:30:44;1.60;54.20
4103;DHT22;2065;49.790;9.620;2022-12-15T02:33:34;1.60;54.20
4103;DHT22;2065;49.790;9.620;2022-12-15T02:36:14;1.60;53.80
4103;DHT22;2065;49.790;9.620;2022-12-15T02:38:42;1.70;54.00
4103;DHT22;2065;49.790;9.620;2022-12-15T02:41:30;1.70;53.70
4103;DHT22;2065;49.790;9.620;2022-12-15T02:43:59;1.90;53.40
4103;DHT22;2065;49.790;9.620;2022-12-15T02:46:34;1.80;53.00
4103;DHT22;2065;49.790;9.620;2022-12-15T02:49:07;1.90;53.00
4103;DHT22;2065;49.790;9.620;2022-12-15T02:51:43;1.60;52.80
4103;DHT22;2065;49.790;9.620;2022-12-15T02:54:34;1.70;53.40
4103;DHT22;2065;49.790;9.620;2022-12-15T02:57:07;1.80;53.20
4103;DHT22;2065;49.790;9.620;2022-12-15T02:59:40;1.80;53.40
4103;DHT22;2065;49.790;9.620;2022-12-15T03:02:11;1.80;53.50
4103;DHT22;2065;49.790;9.620;2022-12-15T03:04:41;2.00;53.20
4103;DHT22;2065;49.790;9.620;2022-12-15T03:07:10;1.70;52.90
4103;DHT22;2065;49.790;9.620;2022-12-15T03:09:37;1.80;53.20
4103;DHT22;2065;49.790;9.620;2022-12-15T03:12:05;1.80;52.90
4103;DHT22;2065;49.790;9.620;2022-12-15T03:14:32;1.80;53.30
4103;DHT22;2065;49.790;9.620;2022-12-15T03:16:59;1.50;53.70
4103;DHT22;2065;49.790;9.620;2022-12-15T03:19:27;1.50;54.20
4103;DHT22;2065;49.790;9.620;2022-12-15T03:21:55;1.60;54.30
4103;DHT22;2065;49.790;9.620;2022-12-15T03:24:22;1.70;54.10
4103;DHT22;2065;49.790;9.620;2022-12-15T03:26:49;1.80;53.50
4103;DHT22;2065;49.790;9.620;2022-12-15T03:29:16;1.90;53.50
4103;DHT22;2065;49.790;9.620;2022-12-15T03:31:44;1.80;53.10
4103;DHT22;2065;49.790;9.620;2022-12-15T03:34:11;1.80;53.20
4103;DHT22;2065;49.790;9.620;2022-12-15T03:36:39;1.80;53.10
4103;DHT22;2065;49.790;9.620;2022-12-15T03:39:07;1.90;53.10
4103;DHT22;2065;49.790;9.620;2022-12-15T03:41:34;1.80;52.50
4103;DHT22;2065;49.790;9.620;2022-12-15T03:44:01;1.70;52.90
4103;DHT22;2065;49.790;9.620;2022-12-15T03:46:28;1.70;53.10
4103;DHT22;2065;49.790;9.620;2022-12-15T03:48:55;1.80;53.00
4103;DHT22;2065;49.790;9.620;2022-12-15T03:51:22;1.90;52.80
4103;DHT22;2065;49.790;9.620;2022-12-15T03:53:50;1.70;53.20
4103;DHT22;2065;49.790;9.620;2022-12-15T03:56:18;1.50;54.00
4103;DHT22;2065;49.790;9.620;2022-12-15T03:58:45;1.70;54.10
4103;DHT22;2065;49.790;9.620;2022-12-15T04:01:18;1.90;53.70
4103;DHT22;2065;49.790;9.620;2022-12-15T04:03:49;2.00;53.60
4103;DHT22;2065;49.790;9.620;2022-12-15T04:06:16;2.10;53.40
4103;DHT22;2065;49.790;9.620;2022-12-15T04:08:42;2.10;53.00
4103;DHT22;2065;49.790;9.620;2022-12-15T04:11:11;2.10;53.00
4103;DHT22;2065;49.790;9.620;2022-12-15T04:13:38;2.10;53.00
4103;DHT22;2065;49.790;9.620;2022-12-15T04:16:05;2.00;53.50
4103;DHT22;2065;49.790;9.620;2022-12-15T04:18:33;1.90;53.80
4103;DHT22;2065;49.790;9.620;2022-12-15T04:21:00;2.10;53.30
4103;DHT22;2065;49.790;9.620;2022-12-15T04:23:26;2.20;52.60
4103;DHT22;2065;49.790;9.620;2022-12-15T04:25:53;2.20;52.30
4103;DHT22;2065;49.790;9.620;2022-12-15T04:28:38;2.20;52.00
4103;DHT22;2065;49.790;9.620;2022-12-15T04:31:25;2.10;51.90
4103;DHT22;2065;49.790;9.620;2022-12-15T04:34:14;2.10;51.70
4103;DHT22;2065;49.790;9.620;2022-12-15T04:36:59;2.00;51.70
4103;DHT22;2065;49.790;9.620;2022-12-15T04:39:46;1.80;51.60
4103;DHT22;2065;49.790;9.620;2022-12-15T04:42:32;1.70;51.60
4103;DHT22;2065;49.790;9.620;2022-12-15T04:45:21;1.50;51.80
4103;DHT22;2065;49.790;9.620;2022-12-15T04:48:06;1.40;52.10
4103;DHT22;2065;49.790;9.620;2022-12-15T04:50:51;1.30;52.10
4103;DHT22;2065;49.790;9.620;2022-12-15T04:53:35;1.30;52.40
4103;DHT22;2065;49.790;9.620;2022-12-15T04:56:20;1.20;52.50
4103;DHT22;2065;49.790;9.620;2022-12-15T04:59:04;1.30;52.30
4103;DHT22;2065;49.790;9.620;2022-12-15T05:01:50;1.40;52.10
4103;DHT22;2065;49.790;9.620;2022-12-15T05:04:34;1.50;51.90
4103;DHT22;2065;49.790;9.620;2022-12-15T05:07:19;1.50;51.90
4103;DHT22;2065;49.790;9.620;2022-12-15T05:10:04;1.60;51.80
4103;DHT22;2065;49.790;9.620;2022-12-15T05:12:49;1.60;51.90
4103;DHT22;2065;49.790;9.620;2022-12-15T05:15:33;1.60;52.00
4103;DHT22;2065;49.790;9.620;2022-12-15T05:18:19;1.50;52.30
4103;DHT22;2065;49.790;9.620;2022-12-15T05:21:05;1.60;52.70
4103;DHT22;2065;49.790;9.620;2022-12-15T05:23:49;1.60;52.70
4103;DHT22;2065;49.790;9.620;2022-12-15T05:26:34;1.70;53.00
4103;DHT22;2065;49.790;9.620;2022-12-15T05:29:18;1.80;52.40
4103;DHT22;2065;49.790;9.620;2022-12-15T05:32:03;1.60;52.40
4103;DHT22;2065;49.790;9.620;2022-12-15T05:34:33;1.50;52.50
4103;DHT22;2065;49.790;9.620;2022-12-15T05:37:01;1.60;52.40
4103;DHT22;2065;49.790;9.620;2022-12-15T05:39:29;1.70;52.40
4103;DHT22;2065;49.790;9.620;2022-12-15T05:41:56;1.70;52.20
4103;DHT22;2065;49.790;9.620;2022-12-15T05:44:24;1.80;52.00
4103;DHT22;2065;49.790;9.620;2022-12-15T05:46:51;1.80;51.40
4103;DHT22;2065;49.790;9.620;2022-12-15T05:49:19;1.40;52.00
4103;DHT22;2065;49.790;9.620;2022-12-15T05:51:49;1.40;52.30
4103;DHT22;2065;49.790;9.620;2022-12-15T05:54:17;1.50;52.30
4103;DHT22;2065;49.790;9.620;2022-12-15T05:56:45;1.20;52.00
4103;DHT22;2065;49.790;9.620;2022-12-15T05:59:13;1.10;52.60
4103;DHT22;2065;49.790;9.620;2022-12-15T06:01:40;1.20;53.00
4103;DHT22;2065;49.790;9.620;2022-12-15T06:04:09;1.30;52.90
4103;DHT22;2065;49.790;9.620;2022-12-15T06:06:36;1.30;52.40
4103;DHT22;2065;49.790;9.620;2022-12-15T06:09:04;1.30;52.20
4103;DHT22;2065;49.790;9.620;2022-12-15T06:11:31;1.30;52.10
4103;DHT22;2065;49.790;9.620;2022-12-15T06:13:59;1.30;52.10
4103;DHT22;2065;49.790;9.620;2022-12-15T06:16:26;1.20;52.00
4103;DHT22;2065;49.790;9.620;2022-12-15T06:18:55;1.30;51.90
4103;DHT22;2065;49.790;9.620;2022-12-15T06:21:26;1.30;51.60
4103;DHT22;2065;49.790;9.620;2022-12-15T06:23:54;1.30;51.50
4103;DHT22;2065;49.790;9.620;2022-12-15T06:26:24;1.30;51.30
4103;DHT22;2065;49.790;9.620;2022-12-15T06:28:54;1.40;51.20
4103;DHT22;2065;49.790;9.620;2022-12-15T06:31:21;1.40;50.70
4103;DHT22;2065;49.790;9.620;2022-12-15T06:33:50;1.20;50.70
4103;DHT22;2065;49.790;9.620;2022-12-15T06:36:17;1.20;50.70
4103;DHT22;2065;49.790;9.620;2022-12-15T06:38:45;1.20;50.80
4103;DHT22;2065;49.790;9.620;2022-12-15T06:41:14;1.00;50.10
4103;DHT22;2065;49.790;9.620;2022-12-15T06:43:43;0.70;50.20
4103;DHT22;2065;49.790;9.620;2022-12-15T06:46:14;0.40;50.90
4103;DHT22;2065;49.790;9.620;2022-12-15T06:48:41;0.50;51.40
4103;DHT22;2065;49.790;9.620;2022-12-15T06:51:10;0.40;51.20
4103;DHT22;2065;49.790;9.620;2022-12-15T06:53:38;0.40;51.20
4103;DHT22;2065;49.790;9.620;2022-12-15T06:56:11;0.40;51.20
4103;DHT22;2065;49.790;9.620;2022-12-15T06:58:41;0.40;51.30
4103;DHT22;2065;49.790;9.620;2022-12-15T07:01:10;0.40;51.00
4103;DHT22;2065;49.790;9.620;2022-12-15T07:03:37;0.30;50.70
4103;DHT22;2065;49.790;9.620;2022-12-15T07:06:06;-0.10;51.90
4103;DHT22;2065;49.790;9.620;2022-12-15T07:08:33;-0.10;52.40
4103;DHT22;2065;49.790;9.620;2022-12-15T07:11:02;-0.10;52.00
4103;DHT22;2065;49.790;9.620;2022-12-15T07:13:30;-0.20;52.10
4103;DHT22;2065;49.790;9.620;2022-12-15T07:15:59;-0.10;52.30
4103;DHT22;2065;49.790;9.620;2022-12-15T07:18:27;0.00;51.70
4103;DHT22;2065;49.790;9.620;2022-12-15T07:20:55;-0.20;51.50
4103;DHT22;2065;49.790;9.620;2022-12-15T07:23:22;-0.70;52.10
4103;DHT22;2065;49.790;9.620;2022-12-15T07:25:49;-1.00;52.60
4103;DHT22;2065;49.790;9.620;2022-12-15T07:28:16;-1.10;53.10
4103;DHT22;2065;49.790;9.620;2022-12-15T07:30:43;-0.90;52.90
4103;DHT22;2065;49.790;9.620;2022-12-15T07:33:11;-0.90;53.20
4103;DHT22;2065;49.790;9.620;2022-12-15T07:35:38;-0.80;52.80
4103;DHT22;2065;49.790;9.620;2022-12-15T07:38:05;-0.60;52.60
4103;DHT22;2065;49.790;9.620;2022-12-15T07:40:33;-0.40;52.10
4103;DHT22;2065;49.790;9.620;2022-12-15T07:43:00;-0.30;51.80
4103;DHT22;2065;49.790;9.620;2022-12-15T07:45:27;-0.30;51.70
4103;DHT22;2065;49.790;9.620;2022-12-15T07:47:54;-0.20;51.30
4103;DHT22;2065;49.790;9.620;2022-12-15T07:50:22;-0.10;51.10
4103;DHT22;2065;49.790;9.620;2022-12-15T07:52:49;-0.10;51.20
4103;DHT22;2065;49.790;9.620;2022-12-15T07:55:17;0.00;51.10
4103;DHT22;2065;49.790;9.620;2022-12-15T07:57:46;0.20;50.80
4103;DHT22;2065;49.790;9.620;2022-12-15T08:00:14;0.20;50.40
4103;DHT22;2065;49.790;9.620;2022-12-15T08:02:42;0.20;50.60
4103;DHT22;2065;49.790;9.620;2022-12-15T08:05:09;0.30;50.10
4103;DHT22;2065;49.790;9.620;2022-12-15T08:07:37;0.20;50.30
4103;DHT22;2065;49.790;9.620;2022-12-15T08:10:05;0.10;50.90
4103;DHT22;2065;49.790;9.620;2022-12-15T08:12:32;0.10;50.80
4103;DHT22;2065;49.790;9.620;2022-12-15T08:14:59;0.20;50.40
4103;DHT22;2065;49.790;9.620;2022-12-15T08:17:26;0.30;50.10
4103;DHT22;2065;49.790;9.620;2022-12-15T08:19:53;0.40;50.10
4103;DHT22;2065;49.790;9.620;2022-12-15T08:22:20;0.40;50.20
4103;DHT22;2065;49.790;9.620;2022-12-15T08:24:49;0.50;49.70
4103;DHT22;2065;49.790;9.620;2022-12-15T08:27:15;0.40;49.20
4103;DHT22;2065;49.790;9.620;2022-12-15T08:29:42;0.40;49.20
4103;DHT22;2065;49.790;9.620;2022-12-15T08:32:10;0.50;49.30
4103;DHT22;2065;49.790;9.620;2022-12-15T08:34:37;0.60;49.30
4103;DHT22;2065;49.790;9.620;2022-12-15T08:37:04;0.60;49.10
4103;DHT22;2065;49.790;9.620;2022-12-15T08:39:31;0.50;49.30
4103;DHT22;2065;49.790;9.620;2022-12-15T08:41:59;0.50;49.30
4103;DHT22;2065;49.790;9.620;2022-12-15T08:44:26;0.50;49.10
4103;DHT22;2065;49.790;9.620;2022-12-15T08:46:53;0.60;49.80
4103;DHT22;2065;49.790;9.620;2022-12-15T08:49:20;0.60;49.10
4103;DHT22;2065;49.790;9.620;2022-12-15T08:51:47;0.70;49.10
4103;DHT22;2065;49.790;9.620;2022-12-15T08:54:14;0.70;49.00
4103;DHT22;2065;49.790;9.620;2022-12-15T08:56:41;0.50;48.90
4103;DHT22;2065;49.790;9.620;2022-12-15T08:59:10;0.60;49.20
4103;DHT22;2065;49.790;9.620;2022-12-15T09:01:37;0.70;48.90
4103;DHT22;2065;49.790;9.620;2022-12-15T09:04:04;0.60;48.80
4103;DHT22;2065;49.790;9.620;2022-12-15T09:06:33;0.70;48.80
4103;DHT22;2065;49.790;9.620;2022-12-15T09:09:04;0.70;48.70
4103;DHT22;2065;49.790;9.620;2022-12-15T09:11:32;0.70;48.80
4103;DHT22;2065;49.790;9.620;2022-12-15T09:13:59;0.70;48.70
4103;DHT22;2065;49.790;9.620;2022-12-15T09:16:27;0.80;48.80
4103;DHT22;2065;49.790;9.620;2022-12-15T09:18:57;0.80;48.70
4103;DHT22;2065;49.790;9.620;2022-12-15T09:21:26;0.80;48.70
4103;DHT22;2065;49.790;9.620;2022-12-15T09:23:55;0.80;48.70
4103;DHT22;2065;49.790;9.620;2022-12-15T09:26:25;0.70;48.60
4103;DHT22;2065;49.790;9.620;2022-12-15T09:28:53;0.80;48.60
4103;DHT22;2065;49.790;9.620;2022-12-15T09:31:22;0.80;48.50
4103;DHT22;2065;49.790;9.620;2022-12-15T09:33:52;0.70;48.70
4103;DHT22;2065;49.790;9.620;2022-12-15T09:36:20;0.70;48.80
4103;DHT22;2065;49.790;9.620;2022-12-15T09:38:48;0.60;49.40
4103;DHT22;2065;49.790;9.620;2022-12-15T09:41:20;0.60;51.00
4103;DHT22;2065;49.790;9.620;2022-12-15T09:43:52;0.70;50.30
4103;DHT22;2065;49.790;9.620;2022-12-15T09:46:25;0.80;49.80
4103;DHT22;2065;49.790;9.620;2022-12-15T09:48:56;0.80;49.50
4103;DHT22;2065;49.790;9.620;2022-12-15T09:51:31;0.70;49.30
4103;DHT22;2065;49.790;9.620;2022-12-15T09:53:59;0.50;50.30
4103;DHT22;2065;49.790;9.620;2022-12-15T09:56:37;0.40;50.90
4103;DHT22;2065;49.790;9.620;2022-12-15T09:59:17;0.30;51.30
4103;DHT22;2065;49.790;9.620;2022-12-15T10:01:51;0.60;51.40
4103;DHT22;2065;49.790;9.620;2022-12-15T10:04:29;0.80;51.10
4103;DHT22;2065;49.790;9.620;2022-12-15T10:07:05;0.90;50.80
4103;DHT22;2065;49.790;9.620;2022-12-15T10:09:33;1.10;50.50
4103;DHT22;2065;49.790;9.620;2022-12-15T10:12:02;1.00;50.80
4103;DHT22;2065;49.790;9.620;2022-12-15T10:14:36;1.10;51.30
4103;DHT22;2065;49.790;9.620;2022-12-15T10:17:16;1.30;51.10
4103;DHT22;2065;49.790;9.620;2022-12-15T10:19:52;1.40;50.80
4103;DHT22;2065;49.790;9.620;2022-12-15T10:22:23;1.40;50.60
4103;DHT22;2065;49.790;9.620;2022-12-15T10:24:51;1.40;50.60
4103;DHT22;2065;49.790;9.620;2022-12-15T10:27:30;1.50;50.70
4103;DHT22;2065;49.790;9.620;2022-12-15T10:30:02;1.40;51.10
4103;DHT22;2065;49.790;9.620;2022-12-15T10:32:40;1.30;52.10
4103;DHT22;2065;49.790;9.620;2022-12-15T10:35:15;1.20;51.80
4103;DHT22;2065;49.790;9.620;2022-12-15T10:37:42;1.40;51.90
4103;DHT22;2065;49.790;9.620;2022-12-15T10:40:14;1.50;51.30
4103;DHT22;2065;49.790;9.620;2022-12-15T10:42:45;1.60;51.10
4103;DHT22;2065;49.790;9.620;2022-12-15T10:45:29;1.60;51.30
4103;DHT22;2065;49.790;9.620;2022-12-15T10:47:58;1.70;51.10
4103;DHT22;2065;49.790;9.620;2022-12-15T10:50:28;1.80;50.90
4103;DHT22;2065;49.790;9.620;2022-12-15T10:52:55;1.80;50.80
4103;DHT22;2065;49.790;9.620;2022-12-15T10:55:31;1.90;50.90
4103;DHT22;2065;49.790;9.620;2022-12-15T10:58:00;1.90;50.90
4103;DHT22;2065;49.790;9.620;2022-12-15T11:00:28;1.90;51.30
4103;DHT22;2065;49.790;9.620;2022-12-15T11:02:56;1.80;51.60
4103;DHT22;2065;49.790;9.620;2022-12-15T11:05:24;1.70;51.70
4103;DHT22;2065;49.790;9.620;2022-12-15T11:07:54;1.70;51.70
4103;DHT22;2065;49.790;9.620;2022-12-15T11:10:23;1.60;51.70
4103;DHT22;2065;49.790;9.620;2022-12-15T11:12:59;1.60;51.90
4103;DHT22;2065;49.790;9.620;2022-12-15T11:15:38;1.60;52.30
4103;DHT22;2065;49.790;9.620;2022-12-15T11:18:10;1.70;52.40
4103;DHT22;2065;49.790;9.620;2022-12-15T11:20:44;1.80;52.30
4103;DHT22;2065;49.790;9.620;2022-12-15T11:23:20;2.00;52.30
4103;DHT22;2065;49.790;9.620;2022-12-15T11:25:52;2.10;52.00
4103;DHT22;2065;49.790;9.620;2022-12-15T11:28:25;2.30;51.90
4103;DHT22;2065;49.790;9.620;2022-12-15T11:30:59;2.40;51.70
4103;DHT22;2065;49.790;9.620;2022-12-15T11:33:28;2.40;51.40
4103;DHT22;2065;49.790;9.620;2022-12-15T11:36:02;2.50;51.30
4103;DHT22;2065;49.790;9.620;2022-12-15T11:38:41;2.40;51.80
4103;DHT22;2065;49.790;9.620;2022-12-15T11:41:16;2.50;52.00
4103;DHT22;2065;49.790;9.620;2022-12-15T11:43:58;2.70;51.90
4103;DHT22;2065;49.790;9.620;2022-12-15T11:46:34;2.70;51.50
4103;DHT22;2065;49.790;9.620;2022-12-15T11:49:38;2.80;52.00
4103;DHT22;2065;49.790;9.620;2022-12-15T11:52:14;2.50;50.90
4103;DHT22;2065;49.790;9.620;2022-12-15T11:54:47;2.30;51.40
4103;DHT22;2065;49.790;9.620;2022-12-15T11:57:45;2.30;52.10
4103;DHT22;2065;49.790;9.620;2022-12-15T12:00:16;2.50;52.10
4103;DHT22;2065;49.790;9.620;2022-12-15T12:02:58;2.50;52.50
4103;DHT22;2065;49.790;9.620;2022-12-15T12:05:46;2.50;52.10
4103;DHT22;2065;49.790;9.620;2022-12-15T12:08:26;2.60;52.80
4103;DHT22;2065;49.790;9.620;2022-12-15T12:10:59;2.60;52.10
4103;DHT22;2065;49.790;9.620;2022-12-15T12:13:32;2.20;53.80
4103;DHT22;2065;49.790;9.620;2022-12-15T12:16:08;2.40;53.40
4103;DHT22;2065;49.790;9.620;2022-12-15T12:18:38;2.60;53.20
4103;DHT22;2065;49.790;9.620;2022-12-15T12:21:09;2.70;52.70
4103;DHT22;2065;49.790;9.620;2022-12-15T12:23:40;2.90;52.50
4103;DHT22;2065;49.790;9.620;2022-12-15T12:26:15;2.90;52.10
4103;DHT22;2065;49.790;9.620;2022-12-15T12:28:46;3.00;52.30
4103;DHT22;2065;49.790;9.620;2022-12-15T12:31:21;3.20;52.30
4103;DHT22;2065;49.790;9.620;2022-12-15T12:33:54;3.10;52.10
4103;DHT22;2065;49.790;9.620;2022-12-15T12:36:23;3.30;52.30
4103;DHT22;2065;49.790;9.620;2022-12-15T12:38:52;3.60;52.00
4103;DHT22;2065;49.790;9.620;2022-12-15T12:41:28;3.80;51.90
4103;DHT22;2065;49.790;9.620;2022-12-15T12:44:00;3.90;51.20
4103;DHT22;2065;49.790;9.620;2022-12-15T12:46:32;4.00;51.10
4103;DHT22;2065;49.790;9.620;2022-12-15T12:49:03;4.10;51.00
4103;DHT22;2065;49.790;9.620;2022-12-15T12:51:33;4.10;50.80
4103;DHT22;2065;49.790;9.620;2022-12-15T12:54:01;4.10;51.20
4103;DHT22;2065;49.790;9.620;2022-12-15T12:56:38;4.10;50.60
4103;DHT22;2065;49.790;9.620;2022-12-15T12:59:31;3.90;50.10
4103;DHT22;2065;49.790;9.620;2022-12-15T13:02:43;3.80;50.00
4103;DHT22;2065;49.790;9.620;2022-12-15T13:05:26;3.60;51.10
4103;DHT22;2065;49.790;9.620;2022-12-15T13:07:55;3.60;51.10
4103;DHT22;2065;49.790;9.620;2022-12-15T13:10:23;3.70;51.20
4103;DHT22;2065;49.790;9.620;2022-12-15T13:12:53;3.60;51.00
4103;DHT22;2065;49.790;9.620;2022-12-15T13:15:33;3.60;51.10
4103;DHT22;2065;49.790;9.620;2022-12-15T13:18:05;3.80;51.20
4103;DHT22;2065;49.790;9.620;2022-12-15T13:20:34;3.90;51.10
4103;DHT22;2065;49.790;9.620;2022-12-15T13:23:35;3.90;50.80
4103;DHT22;2065;49.790;9.620;2022-12-15T13:26:13;3.80;50.50
4103;DHT22;2065;49.790;9.620;2022-12-15T13:28:44;3.50;51.00
4103;DHT22;2065;49.790;9.620;2022-12-15T13:31:29;3.50;51.20
4103;DHT22;2065;49.790;9.620;2022-12-15T13:34:24;3.50;51.50
4103;DHT22;2065;49.790;9.620;2022-12-15T13:37:00;3.50;51.50
4103;DHT22;2065;49.790;9.620;2022-12-15T13:42:33;3.50;51.00
4103;DHT22;2065;49.790;9.620;2022-12-15T13:45:31;3.40;51.30
4103;DHT22;2065;49.790;9.620;2022-12-15T13:48:07;3.50;51.50
4103;DHT22;2065;49.790;9.620;2022-12-15T13:50:43;3.40;51.60
4103;DHT22;2065;49.790;9.620;2022-12-15T13:53:17;3.60;51.50
4103;DHT22;2065;49.790;9.620;2022-12-15T13:55:59;3.70;51.50
4103;DHT22;2065;49.790;9.620;2022-12-15T13:58:36;3.80;51.30
4103;DHT22;2065;49.790;9.620;2022-12-15T14:01:18;3.80;50.90
4103;DHT22;2065;49.790;9.620;2022-12-15T14:03:58;3.90;50.80
4103;DHT22;2065;49.790;9.620;2022-12-15T14:06:33;4.00;51.00
4103;DHT22;2065;49.790;9.620;2022-12-15T14:09:01;4.00;50.90
4103;DHT22;2065;49.790;9.620;2022-12-15T14:11:32;4.00;50.80
4103;DHT22;2065;49.790;9.620;2022-12-15T14:13:59;3.90;50.50
4103;DHT22;2065;49.790;9.620;2022-12-15T14:16:30;3.90;50.70
4103;DHT22;2065;49.790;9.620;2022-12-15T14:19:07;3.70;50.60
4103;DHT22;2065;49.790;9.620;2022-12-15T14:21:35;3.70;50.90
4103;DHT22;2065;49.790;9.620;2022-12-15T14:24:15;3.60;50.80
4103;DHT22;2065;49.790;9.620;2022-12-15T14:26:46;3.50;51.10
4103;DHT22;2065;49.790;9.620;2022-12-15T14:29:13;3.50;51.30
4103;DHT22;2065;49.790;9.620;2022-12-15T14:31:43;3.50;51.30
4103;DHT22;2065;49.790;9.620;2022-12-15T14:34:15;3.50;51.30
4103;DHT22;2065;49.790;9.620;2022-12-15T14:36:45;3.60;51.20
4103;DHT22;2065;49.790;9.620;2022-12-15T14:39:19;3.60;51.10
4103;DHT22;2065;49.790;9.620;2022-12-15T14:41:48;3.60;51.00
4103;DHT22;2065;49.790;9.620;2022-12-15T14:44:22;3.60;51.10
4103;DHT22;2065;49.790;9.620;2022-12-15T14:46:54;3.60;51.10
4103;DHT22;2065;49.790;9.620;2022-12-15T14:49:24;3.50;51.00
4103;DHT22;2065;49.790;9.620;2022-12-15T14:51:56;3.50;51.00
4103;DHT22;2065;49.790;9.620;2022-12-15T14:54:32;3.20;51.20
4103;DHT22;2065;49.790;9.620;2022-12-15T14:57:09;3.00;52.00
4103;DHT22;2065;49.790;9.620;2022-12-15T14:59:39;3.00;51.90
4103;DHT22;2065;49.790;9.620;2022-12-15T15:02:15;3.10;52.70
4103;DHT22;2065;49.790;9.620;2022-12-15T15:04:54;3.10;52.70
4103;DHT22;2065;49.790;9.620;2022-12-15T15:07:22;3.10;52.00
4103;DHT22;2065;49.790;9.620;2022-12-15T15:09:50;3.00;51.80
4103;DHT22;2065;49.790;9.620;2022-12-15T15:12:18;2.80;51.80
4103;DHT22;2065;49.790;9.620;2022-12-15T15:14:47;2.50;52.40
4103;DHT22;2065;49.790;9.620;2022-12-15T15:17:24;2.40;53.10
4103;DHT22;2065;49.790;9.620;2022-12-15T15:19:55;2.40;52.90
4103;DHT22;2065;49.790;9.620;2022-12-15T15:22:34;2.50;52.70
4103;DHT22;2065;49.790;9.620;2022-12-15T15:25:02;2.60;52.50
4103;DHT22;2065;49.790;9.620;2022-12-15T15:27:44;2.60;52.20
4103;DHT22;2065;49.790;9.620;2022-12-15T15:30:16;2.20;52.70
4103;DHT22;2065;49.790;9.620;2022-12-15T15:32:53;2.10;53.10
4103;DHT22;2065;49.790;9.620;2022-12-15T15:35:22;2.00;53.30
4103;DHT22;2065;49.790;9.620;2022-12-15T15:37:50;1.90;53.50
4103;DHT22;2065;49.790;9.620;2022-12-15T15:40:18;2.00;53.40
4103;DHT22;2065;49.790;9.620;2022-12-15T15:42:45;2.20;53.40
4103;DHT22;2065;49.790;9.620;2022-12-15T15:45:14;2.30;53.20
4103;DHT22;2065;49.790;9.620;2022-12-15T15:47:45;2.10;53.20
4103;DHT22;2065;49.790;9.620;2022-12-15T15:50:15;2.10;53.10
4103;DHT22;2065;49.790;9.620;2022-12-15T15:52:43;2.10;53.40
4103;DHT22;2065;49.790;9.620;2022-12-15T15:55:14;2.10;53.40
4103;DHT22;2065;49.790;9.620;2022-12-15T15:57:42;2.30;53.20
4103;DHT22;2065;49.790;9.620;2022-12-15T16:00:15;2.30;53.00
4103;DHT22;2065;49.790;9.620;2022-12-15T16:02:43;2.30;52.90
4103;DHT22;2065;49.790;9.620;2022-12-15T16:05:10;2.40;52.70
4103;DHT22;2065;49.790;9.620;2022-12-15T16:07:41;2.40;52.60
4103;DHT22;2065;49.790;9.620;2022-12-15T16:10:13;2.40;52.40
4103;DHT22;2065;49.790;9.620;2022-12-15T16:12:43;2.40;52.30
4103;DHT22;2065;49.790;9.620;2022-12-15T16:15:17;2.30;52.60
4103;DHT22;2065;49.790;9.620;2022-12-15T16:17:45;2.30;53.30
4103;DHT22;2065;49.790;9.620;2022-12-15T16:20:13;2.30;54.00
4103;DHT22;2065;49.790;9.620;2022-12-15T16:22:44;1.90;54.20
4103;DHT22;2065;49.790;9.620;2022-12-15T16:25:15;2.00;53.70
4103;DHT22;2065;49.790;9.620;2022-12-15T16:27:43;2.00;53.40
4103;DHT22;2065;49.790;9.620;2022-12-15T16:30:15;1.90;53.50
4103;DHT22;2065;49.790;9.620;2022-12-15T16:32:42;1.90;53.40
4103;DHT22;2065;49.790;9.620;2022-12-15T16:35:10;1.90;53.30
4103;DHT22;2065;49.790;9.620;2022-12-15T16:37:37;1.70;53.40
4103;DHT22;2065;49.790;9.620;2022-12-15T16:40:23;1.60;54.00
4103;DHT22;2065;49.790;9.620;2022-12-15T16:42:53;1.60;54.20
4103;DHT22;2065;49.790;9.620;2022-12-15T16:45:22;1.50;54.30
4103;DHT22;2065;49.790;9.620;2022-12-15T16:47:50;1.60;54.20
4103;DHT22;2065;49.790;9.620;2022-12-15T16:50:18;1.60;54.00
4103;DHT22;2065;49.790;9.620;2022-12-15T16:52:48;1.40;54.10
4103;DHT22;2065;49.790;9.620;2022-12-15T16:55:18;1.40;53.70
4103;DHT22;2065;49.790;9.620;2022-12-15T16:57:47;1.20;54.70
4103;DHT22;2065;49.790;9.620;2022-12-15T17:00:17;1.30;54.70